Terminal Aerodrome Forecast
Issued by NWS Upton, NY

Home | Current Version | Previous Version | Text Only | Print | Product List | Glossary On
Versions: 1 2 3 4 5 6 7 8 9 10 11 12 13 14 15 16 17 18 19 20 21 22 23 24 25 26 27 28 29 30 31 32 33
040
FTUS41 KOKX 250548
TAFJFK
TAF
KJFK 250548Z 2506/2612 21010KT P6SM SCT120 BKN250
     FM252300 25010KT P6SM VCSH SCT040 BKN100 OVC200
     FM260200 29012G18KT P6SM VCSH OVC040
     FM260700 31015G25KT P6SM SCT050=

USA.gov is the U.S. government's official web portal to all federal, state and local government web resources and services.